sensor_id;sensor_type;location;lat;lon;timestamp;pressure;altitude;pressure_sealevel;temperature;humidity
37420;BME280;47344;52.374;4.816;2023-02-20T00:02:48;102392.0;;;8.16;100.0
37420;BME280;47344;52.374;4.816;2023-02-20T00:04:25;102384.0;;;8.19;100.0
37420;BME280;47344;52.374;4.816;2023-02-20T00:06:02;102381.0;;;8.28;100.0
37420;BME280;47344;52.374;4.816;2023-02-20T00:09:15;102385.0;;;8.23;100.0
37420;BME280;47344;52.374;4.816;2023-02-20T00:10:53;102382.0;;;8.31;100.0
37420;BME280;47344;52.374;4.816;2023-02-20T00:12:29;102370.0;;;8.31;100.0
37420;BME280;47344;52.374;4.816;2023-02-20T00:15:43;102378.0;;;8.34;100.0
37420;BME280;47344;52.374;4.816;2023-02-20T00:17:20;102371.0;;;8.33;100.0
37420;BME280;47344;52.374;4.816;2023-02-20T00:18:56;102376.0;;;8.32;100.0
37420;BME280;47344;52.374;4.816;2023-02-20T00:20:35;102378.0;;;8.34;100.0
37420;BME280;47344;52.374;4.816;2023-02-20T00:23:48;102370.0;;;8.38;100.0
37420;BME280;47344;52.374;4.816;2023-02-20T00:25:25;102369.0;;;8.35;100.0
37420;BME280;47344;52.374;4.816;2023-02-20T00:27:02;102369.0;;;8.35;100.0
37420;BME280;47344;52.374;4.816;2023-02-20T00:30:19;102361.0;;;8.36;100.0
37420;BME280;47344;52.374;4.816;2023-02-20T00:31:57;102361.0;;;8.23;100.0
37420;BME280;47344;52.374;4.816;2023-02-20T00:33:35;102360.0;;;8.24;100.0
37420;BME280;47344;52.374;4.816;2023-02-20T00:35:12;102365.0;;;8.18;100.0
37420;BME280;47344;52.374;4.816;2023-02-20T00:38:26;102359.0;;;8.25;100.0
37420;BME280;47344;52.374;4.816;2023-02-20T00:40:05;102361.0;;;8.28;100.0
37420;BME280;47344;52.374;4.816;2023-02-20T00:41:43;102359.0;;;8.25;100.0
37420;BME280;47344;52.374;4.816;2023-02-20T00:44:56;102360.0;;;8.14;100.0
37420;BME280;47344;52.374;4.816;2023-02-20T00:46:33;102352.0;;;8.23;100.0
37420;BME280;47344;52.374;4.816;2023-02-20T00:48:10;102346.0;;;8.19;100.0
37420;BME280;47344;52.374;4.816;2023-02-20T00:49:47;102340.0;;;8.3;100.0
37420;BME280;47344;52.374;4.816;2023-02-20T00:53:01;102324.0;;;8.18;100.0
37420;BME280;47344;52.374;4.816;2023-02-20T00:54:39;102315.0;;;8.17;100.0
37420;BME280;47344;52.374;4.816;2023-02-20T00:56:15;102303.0;;;8.15;100.0
37420;BME280;47344;52.374;4.816;2023-02-20T00:59:28;102309.0;;;8.18;100.0
37420;BME280;47344;52.374;4.816;2023-02-20T01:01:05;102299.0;;;8.08;100.0
37420;BME280;47344;52.374;4.816;2023-02-20T01:02:42;102282.0;;;8.15;100.0
37420;BME280;47344;52.374;4.816;2023-02-20T01:05:55;102285.0;;;8.14;100.0
37420;BME280;47344;52.374;4.816;2023-02-20T01:07:32;102281.0;;;8.14;100.0
37420;BME280;47344;52.374;4.816;2023-02-20T01:09:09;102280.0;;;8.17;100.0
37420;BME280;47344;52.374;4.816;2023-02-20T01:10:48;102276.0;;;8.08;100.0
37420;BME280;47344;52.374;4.816;2023-02-20T01:14:02;102273.0;;;8.03;100.0
37420;BME280;47344;52.374;4.816;2023-02-20T01:15:39;102271.0;;;8.05;100.0
37420;BME280;47344;52.374;4.816;2023-02-20T01:17:15;102275.0;;;8.08;100.0
37420;BME280;47344;52.374;4.816;2023-02-20T01:20:29;102280.0;;;7.97;100.0
37420;BME280;47344;52.374;4.816;2023-02-20T01:22:07;102275.0;;;8.02;100.0
37420;BME280;47344;52.374;4.816;2023-02-20T01:23:44;102262.0;;;8.03;100.0
37420;BME280;47344;52.374;4.816;2023-02-20T01:25:20;102264.0;;;7.99;100.0
37420;BME280;47344;52.374;4.816;2023-02-20T01:28:34;102264.0;;;8.07;100.0
37420;BME280;47344;52.374;4.816;2023-02-20T01:30:12;102269.0;;;8.07;100.0
37420;BME280;47344;52.374;4.816;2023-02-20T01:31:50;102272.0;;;8.02;100.0
37420;BME280;47344;52.374;4.816;2023-02-20T01:35:05;102270.0;;;8.03;100.0
37420;BME280;47344;52.374;4.816;2023-02-20T01:36:47;102268.0;;;7.99;100.0
37420;BME280;47344;52.374;4.816;2023-02-20T01:38:24;102269.0;;;7.94;100.0
37420;BME280;47344;52.374;4.816;2023-02-20T01:40:02;102264.0;;;8.06;100.0
37420;BME280;47344;52.374;4.816;2023-02-20T01:43:16;102265.0;;;8.07;100.0
37420;BME280;47344;52.374;4.816;2023-02-20T01:44:52;102262.0;;;8.09;100.0
37420;BME280;47344;52.374;4.816;2023-02-20T01:46:48;102258.0;;;8.1;100.0
37420;BME280;47344;52.374;4.816;2023-02-20T01:48:26;102250.0;;;8.08;100.0
37420;BME280;47344;52.374;4.816;2023-02-20T01:51:45;102249.0;;;7.98;100.0
37420;BME280;47344;52.374;4.816;2023-02-20T01:53:27;102253.0;;;8.02;100.0
37420;BME280;47344;52.374;4.816;2023-02-20T01:55:11;102248.0;;;7.95;100.0
37420;BME280;47344;52.374;4.816;2023-02-20T01:56:49;102246.0;;;7.94;100.0
37420;BME280;47344;52.374;4.816;2023-02-20T02:00:15;102240.0;;;7.94;100.0
37420;BME280;47344;52.374;4.816;2023-02-20T02:01:53;102238.0;;;7.94;100.0
37420;BME280;47344;52.374;4.816;2023-02-20T02:03:34;102240.0;;;7.88;100.0
37420;BME280;47344;52.374;4.816;2023-02-20T02:05:11;102242.0;;;7.95;100.0
37420;BME280;47344;52.374;4.816;2023-02-20T02:08:29;102250.0;;;7.97;100.0
37420;BME280;47344;52.374;4.816;2023-02-20T02:10:10;102255.0;;;7.94;100.0
37420;BME280;47344;52.374;4.816;2023-02-20T02:11:49;102249.0;;;7.94;100.0
37420;BME280;47344;52.374;4.816;2023-02-20T02:13:26;102242.0;;;7.96;100.0
37420;BME280;47344;52.374;4.816;2023-02-20T02:17:00;102240.0;;;8.06;100.0
37420;BME280;47344;52.374;4.816;2023-02-20T02:18:51;102239.0;;;8.06;100.0
37420;BME280;47344;52.374;4.816;2023-02-20T02:21:54;102232.0;;;8.01;100.0
37420;BME280;47344;52.374;4.816;2023-02-20T02:25:19;102224.0;;;7.96;100.0
37420;BME280;47344;52.374;4.816;2023-02-20T02:27:23;102228.0;;;8.0;100.0
37420;BME280;47344;52.374;4.816;2023-02-20T02:30:32;102226.0;;;8.09;100.0
37420;BME280;47344;52.374;4.816;2023-02-20T02:31:30;102226.0;;;8.09;100.0
37420;BME280;47344;52.374;4.816;2023-02-20T02:32:26;102224.0;;;8.16;100.0
37420;BME280;47344;52.374;4.816;2023-02-20T02:34:03;102224.0;;;8.16;100.0
37420;BME280;47344;52.374;4.816;2023-02-20T02:35:47;102228.0;;;8.23;100.0
37420;BME280;47344;52.374;4.816;2023-02-20T02:36:52;102228.0;;;8.23;100.0
37420;BME280;47344;52.374;4.816;2023-02-20T02:38:38;102218.0;;;8.26;100.0
37420;BME280;47344;52.374;4.816;2023-02-20T02:42:12;102223.0;;;8.3;100.0
37420;BME280;47344;52.374;4.816;2023-02-20T02:43:55;102215.0;;;8.3;100.0
37420;BME280;47344;52.374;4.816;2023-02-20T02:45:40;102209.0;;;8.26;100.0
37420;BME280;47344;52.374;4.816;2023-02-20T02:47:24;102205.0;;;8.27;100.0
37420;BME280;47344;52.374;4.816;2023-02-20T02:49:06;102205.0;;;8.33;100.0
37420;BME280;47344;52.374;4.816;2023-02-20T02:53:01;102212.0;;;8.36;100.0
37420;BME280;47344;52.374;4.816;2023-02-20T02:54:38;102214.0;;;8.43;100.0
37420;BME280;47344;52.374;4.816;2023-02-20T02:56:33;102213.0;;;8.55;100.0
37420;BME280;47344;52.374;4.816;2023-02-20T02:58:09;102214.0;;;8.56;100.0
37420;BME280;47344;52.374;4.816;2023-02-20T02:59:50;102205.0;;;8.63;100.0
37420;BME280;47344;52.374;4.816;2023-02-20T03:01:32;102203.0;;;8.64;100.0
37420;BME280;47344;52.374;4.816;2023-02-20T03:04:56;102199.0;;;8.74;100.0
37420;BME280;47344;52.374;4.816;2023-02-20T03:06:38;102194.0;;;8.78;100.0
37420;BME280;47344;52.374;4.816;2023-02-20T03:08:25;102187.0;;;8.84;100.0
37420;BME280;47344;52.374;4.816;2023-02-20T03:10:22;102196.0;;;8.86;100.0
37420;BME280;47344;52.374;4.816;2023-02-20T03:12:00;102188.0;;;8.85;100.0
37420;BME280;47344;52.374;4.816;2023-02-20T03:17:39;102192.0;;;8.91;100.0
37420;BME280;47344;52.374;4.816;2023-02-20T03:19:25;102187.0;;;8.97;100.0
37420;BME280;47344;52.374;4.816;2023-02-20T03:21:12;102184.0;;;9.01;100.0
37420;BME280;47344;52.374;4.816;2023-02-20T03:22:55;102183.0;;;8.92;100.0
37420;BME280;47344;52.374;4.816;2023-02-20T03:24:56;102180.0;;;8.88;100.0
37420;BME280;47344;52.374;4.816;2023-02-20T03:26:37;102171.0;;;8.97;100.0
37420;BME280;47344;52.374;4.816;2023-02-20T03:29:58;102165.0;;;8.91;100.0
37420;BME280;47344;52.374;4.816;2023-02-20T03:31:40;102163.0;;;8.97;100.0
37420;BME280;47344;52.374;4.816;2023-02-20T03:44:25;102153.0;;;9.01;100.0
37420;BME280;47344;52.374;4.816;2023-02-20T03:46:05;102158.0;;;9.01;100.0
37420;BME280;47344;52.374;4.816;2023-02-20T03:47:48;102155.0;;;8.98;100.0
37420;BME280;47344;52.374;4.816;2023-02-20T03:52:52;102155.0;;;8.99;100.0
37420;BME280;47344;52.374;4.816;2023-02-20T03:54:31;102155.0;;;8.93;100.0
37420;BME280;47344;52.374;4.816;2023-02-20T03:56:13;102149.0;;;8.91;100.0
37420;BME280;47344;52.374;4.816;2023-02-20T03:59:39;102147.0;;;8.98;100.0
37420;BME280;47344;52.374;4.816;2023-02-20T04:01:19;102143.0;;;8.92;100.0
37420;BME280;47344;52.374;4.816;2023-02-20T04:03:02;102130.0;;;8.93;100.0
37420;BME280;47344;52.374;4.816;2023-02-20T04:04:45;102135.0;;;8.92;100.0
37420;BME280;47344;52.374;4.816;2023-02-20T04:06:26;102141.0;;;8.86;100.0
37420;BME280;47344;52.374;4.816;2023-02-20T04:09:48;102134.0;;;8.98;100.0
37420;BME280;47344;52.374;4.816;2023-02-20T04:11:28;102139.0;;;9.0;100.0
37420;BME280;47344;52.374;4.816;2023-02-20T04:13:10;102137.0;;;8.93;100.0
37420;BME280;47344;52.374;4.816;2023-02-20T04:14:50;102145.0;;;8.99;100.0
37420;BME280;47344;52.374;4.816;2023-02-20T04:18:14;102131.0;;;8.9;100.0
37420;BME280;47344;52.374;4.816;2023-02-20T04:19:51;102137.0;;;8.91;100.0
37420;BME280;47344;52.374;4.816;2023-02-20T04:21:33;102138.0;;;8.86;100.0
37420;BME280;47344;52.374;4.816;2023-02-20T04:23:15;102132.0;;;8.91;100.0
37420;BME280;47344;52.374;4.816;2023-02-20T04:26:36;102139.0;;;8.9;100.0
37420;BME280;47344;52.374;4.816;2023-02-20T04:28:14;102143.0;;;8.91;100.0
37420;BME280;47344;52.374;4.816;2023-02-20T04:29:51;102138.0;;;8.84;100.0
37420;BME280;47344;52.374;4.816;2023-02-20T04:31:28;102141.0;;;8.89;100.0
37420;BME280;47344;52.374;4.816;2023-02-20T04:34:45;102136.0;;;8.88;100.0
37420;BME280;47344;52.374;4.816;2023-02-20T04:36:22;102139.0;;;8.9;100.0
37420;BME280;47344;52.374;4.816;2023-02-20T04:38:00;102130.0;;;8.89;100.0
37420;BME280;47344;52.374;4.816;2023-02-20T04:41:14;102132.0;;;8.83;100.0
37420;BME280;47344;52.374;4.816;2023-02-20T04:42:51;102126.0;;;8.89;100.0
37420;BME280;47344;52.374;4.816;2023-02-20T04:44:31;102143.0;;;8.88;100.0
37420;BME280;47344;52.374;4.816;2023-02-20T04:46:09;102140.0;;;8.9;100.0
37420;BME280;47344;52.374;4.816;2023-02-20T04:49:22;102134.0;;;8.9;100.0
37420;BME280;47344;52.374;4.816;2023-02-20T04:50:59;102143.0;;;8.77;100.0
37420;BME280;47344;52.374;4.816;2023-02-20T04:52:37;102142.0;;;8.86;100.0
37420;BME280;47344;52.374;4.816;2023-02-20T04:55:51;102150.0;;;8.86;100.0
37420;BME280;47344;52.374;4.816;2023-02-20T04:57:28;102150.0;;;8.81;100.0
37420;BME280;47344;52.374;4.816;2023-02-20T04:59:05;102158.0;;;8.83;100.0
37420;BME280;47344;52.374;4.816;2023-02-20T05:02:20;102150.0;;;8.76;100.0
37420;BME280;47344;52.374;4.816;2023-02-20T05:03:57;102159.0;;;8.75;100.0
37420;BME280;47344;52.374;4.816;2023-02-20T05:05:34;102163.0;;;8.73;100.0
37420;BME280;47344;52.374;4.816;2023-02-20T05:07:11;102158.0;;;8.8;100.0
37420;BME280;47344;52.374;4.816;2023-02-20T05:10:26;102156.0;;;8.76;100.0
37420;BME280;47344;52.374;4.816;2023-02-20T05:12:03;102164.0;;;8.82;100.0
37420;BME280;47344;52.374;4.816;2023-02-20T05:13:40;102167.0;;;8.81;100.0
37420;BME280;47344;52.374;4.816;2023-02-20T05:16:55;102167.0;;;8.83;100.0
37420;BME280;47344;52.374;4.816;2023-02-20T05:18:32;102162.0;;;8.88;100.0
37420;BME280;47344;52.374;4.816;2023-02-20T05:20:11;102165.0;;;8.89;100.0
37420;BME280;47344;52.374;4.816;2023-02-20T05:22:23;102157.0;;;8.84;100.0
37420;BME280;47344;52.374;4.816;2023-02-20T05:23:59;102152.0;;;8.92;100.0
37420;BME280;47344;52.374;4.816;2023-02-20T05:27:15;102153.0;;;8.94;100.0
37420;BME280;47344;52.374;4.816;2023-02-20T05:28:53;102156.0;;;8.93;100.0
37420;BME280;47344;52.374;4.816;2023-02-20T05:30:30;102151.0;;;8.86;100.0
37420;BME280;47344;52.374;4.816;2023-02-20T05:32:07;102147.0;;;8.81;100.0
37420;BME280;47344;52.374;4.816;2023-02-20T05:35:20;102142.0;;;8.78;100.0
37420;BME280;47344;52.374;4.816;2023-02-20T05:36:57;102138.0;;;8.82;100.0
37420;BME280;47344;52.374;4.816;2023-02-20T05:38:34;102139.0;;;8.92;100.0
37420;BME280;47344;52.374;4.816;2023-02-20T05:41:48;102152.0;;;8.93;100.0
37420;BME280;47344;52.374;4.816;2023-02-20T05:43:24;102140.0;;;8.88;100.0
37420;BME280;47344;52.374;4.816;2023-02-20T05:45:01;102131.0;;;8.92;100.0
37420;BME280;47344;52.374;4.816;2023-02-20T05:48:17;102145.0;;;8.89;100.0
37420;BME280;47344;52.374;4.816;2023-02-20T05:49:54;102135.0;;;8.83;100.0
37420;BME280;47344;52.374;4.816;2023-02-20T05:51:31;102132.0;;;8.88;100.0
37420;BME280;47344;52.374;4.816;2023-02-20T05:53:08;102135.0;;;8.93;100.0
37420;BME280;47344;52.374;4.816;2023-02-20T05:56:22;102126.0;;;8.8;100.0
37420;BME280;47344;52.374;4.816;2023-02-20T05:57:58;102133.0;;;8.81;100.0
37420;BME280;47344;52.374;4.816;2023-02-20T05:59:36;102111.0;;;8.88;100.0
37420;BME280;47344;52.374;4.816;2023-02-20T06:02:53;102123.0;;;8.84;100.0
37420;BME280;47344;52.374;4.816;2023-02-20T06:04:29;102122.0;;;8.85;100.0
37420;BME280;47344;52.374;4.816;2023-02-20T06:06:06;102124.0;;;8.83;100.0
37420;BME280;47344;52.374;4.816;2023-02-20T06:07:42;102127.0;;;8.69;100.0
37420;BME280;47344;52.374;4.816;2023-02-20T06:10:56;102131.0;;;8.73;100.0
37420;BME280;47344;52.374;4.816;2023-02-20T06:12:33;102132.0;;;8.75;100.0
37420;BME280;47344;52.374;4.816;2023-02-20T06:14:10;102125.0;;;8.68;100.0
37420;BME280;47344;52.374;4.816;2023-02-20T06:17:24;102132.0;;;8.71;100.0
37420;BME280;47344;52.374;4.816;2023-02-20T06:19:00;102140.0;;;8.72;100.0
37420;BME280;47344;52.374;4.816;2023-02-20T06:20:37;102140.0;;;8.67;100.0
37420;BME280;47344;52.374;4.816;2023-02-20T06:23:52;102137.0;;;8.64;100.0
37420;BME280;47344;52.374;4.816;2023-02-20T06:25:29;102142.0;;;8.63;100.0
37420;BME280;47344;52.374;4.816;2023-02-20T06:27:07;102143.0;;;8.64;100.0
37420;BME280;47344;52.374;4.816;2023-02-20T06:28:44;102141.0;;;8.58;100.0
37420;BME280;47344;52.374;4.816;2023-02-20T06:31:57;102153.0;;;8.61;100.0
37420;BME280;47344;52.374;4.816;2023-02-20T06:33:34;102145.0;;;8.65;100.0
37420;BME280;47344;52.374;4.816;2023-02-20T06:35:11;102156.0;;;8.65;100.0
37420;BME280;47344;52.374;4.816;2023-02-20T06:38:27;102143.0;;;8.64;100.0
37420;BME280;47344;52.374;4.816;2023-02-20T06:40:04;102127.0;;;8.64;100.0
37420;BME280;47344;52.374;4.816;2023-02-20T06:41:41;102155.0;;;8.67;100.0
37420;BME280;47344;52.374;4.816;2023-02-20T06:43:19;102141.0;;;8.69;100.0
37420;BME280;47344;52.374;4.816;2023-02-20T06:46:32;102135.0;;;8.65;100.0
37420;BME280;47344;52.374;4.816;2023-02-20T06:48:10;102126.0;;;8.65;100.0
37420;BME280;47344;52.374;4.816;2023-02-20T06:49:48;102137.0;;;8.74;100.0
37420;BME280;47344;52.374;4.816;2023-02-20T06:53:03;102117.0;;;8.72;100.0
37420;BME280;47344;52.374;4.816;2023-02-20T06:54:41;102124.0;;;8.69;100.0
37420;BME280;47344;52.374;4.816;2023-02-20T06:56:23;102127.0;;;8.73;100.0
37420;BME280;47344;52.374;4.816;2023-02-20T06:57:59;102130.0;;;8.76;100.0
37420;BME280;47344;52.374;4.816;2023-02-20T07:01:21;102128.0;;;8.74;100.0
37420;BME280;47344;52.374;4.816;2023-02-20T07:02:59;102123.0;;;8.72;100.0
37420;BME280;47344;52.374;4.816;2023-02-20T07:04:36;102118.0;;;8.73;100.0
37420;BME280;47344;52.374;4.816;2023-02-20T07:07:50;102121.0;;;8.73;100.0
37420;BME280;47344;52.374;4.816;2023-02-20T07:09:28;102120.0;;;8.68;100.0
37420;BME280;47344;52.374;4.816;2023-02-20T07:11:05;102135.0;;;8.71;100.0
37420;BME280;47344;52.374;4.816;2023-02-20T07:12:42;102138.0;;;8.72;100.0
37420;BME280;47344;52.374;4.816;2023-02-20T07:15:55;102144.0;;;8.73;100.0
37420;BME280;47344;52.374;4.816;2023-02-20T07:17:33;102144.0;;;8.82;100.0
37420;BME280;47344;52.374;4.816;2023-02-20T07:19:10;102146.0;;;8.9;100.0
37420;BME280;47344;52.374;4.816;2023-02-20T07:22:26;102148.0;;;8.86;100.0
37420;BME280;47344;52.374;4.816;2023-02-20T07:24:04;102144.0;;;8.82;100.0
37420;BME280;47344;52.374;4.816;2023-02-20T07:25:42;102153.0;;;8.88;100.0
37420;BME280;47344;52.374;4.816;2023-02-20T07:27:19;102167.0;;;8.93;100.0
37420;BME280;47344;52.374;4.816;2023-02-20T07:30:34;102152.0;;;8.89;100.0
37420;BME280;47344;52.374;4.816;2023-02-20T07:32:11;102180.0;;;8.93;100.0
37420;BME280;47344;52.374;4.816;2023-02-20T07:33:49;102157.0;;;8.89;100.0
37420;BME280;47344;52.374;4.816;2023-02-20T07:38:39;102163.0;;;8.93;100.0
37420;BME280;47344;52.374;4.816;2023-02-20T07:40:16;102163.0;;;8.89;100.0
37420;BME280;47344;52.374;4.816;2023-02-20T07:41:54;102158.0;;;8.85;100.0
37420;BME280;47344;52.374;4.816;2023-02-20T07:45:08;102156.0;;;8.92;100.0
37420;BME280;47344;52.374;4.816;2023-02-20T07:46:46;102152.0;;;8.89;100.0
37420;BME280;47344;52.374;4.816;2023-02-20T07:48:22;102146.0;;;8.98;100.0
37420;BME280;47344;52.374;4.816;2023-02-20T07:51:35;102158.0;;;8.96;100.0
37420;BME280;47344;52.374;4.816;2023-02-20T07:53:13;102150.0;;;8.94;100.0
37420;BME280;47344;52.374;4.816;2023-02-20T07:54:51;102155.0;;;8.94;100.0
37420;BME280;47344;52.374;4.816;2023-02-20T07:56:27;102160.0;;;8.99;100.0
37420;BME280;47344;52.374;4.816;2023-02-20T07:59:41;102158.0;;;8.98;100.0
37420;BME280;47344;52.374;4.816;2023-02-20T08:01:18;102157.0;;;8.93;100.0
37420;BME280;47344;52.374;4.816;2023-02-20T08:02:55;102149.0;;;8.98;100.0
37420;BME280;47344;52.374;4.816;2023-02-20T08:06:07;102155.0;;;8.93;100.0
37420;BME280;47344;52.374;4.816;2023-02-20T08:07:44;102149.0;;;8.96;100.0
37420;BME280;47344;52.374;4.816;2023-02-20T08:09:20;102145.0;;;8.93;100.0
37420;BME280;47344;52.374;4.816;2023-02-20T08:12:34;102160.0;;;8.92;100.0
37420;BME280;47344;52.374;4.816;2023-02-20T08:14:12;102158.0;;;8.92;100.0
37420;BME280;47344;52.374;4.816;2023-02-20T08:15:49;102158.0;;;8.91;100.0
37420;BME280;47344;52.374;4.816;2023-02-20T08:17:25;102158.0;;;8.89;100.0
37420;BME280;47344;52.374;4.816;2023-02-20T08:20:38;102158.0;;;8.88;100.0
37420;BME280;47344;52.374;4.816;2023-02-20T08:22:14;102168.0;;;8.92;100.0
37420;BME280;47344;52.374;4.816;2023-02-20T08:23:51;102156.0;;;8.93;100.0
37420;BME280;47344;52.374;4.816;2023-02-20T08:27:04;102155.0;;;8.97;100.0
37420;BME280;47344;52.374;4.816;2023-02-20T08:28:40;102143.0;;;9.03;100.0
37420;BME280;47344;52.374;4.816;2023-02-20T08:30:21;102144.0;;;8.96;100.0
37420;BME280;47344;52.374;4.816;2023-02-20T08:33:34;102141.0;;;9.0;100.0
37420;BME280;47344;52.374;4.816;2023-02-20T08:35:10;102127.0;;;8.98;100.0
37420;BME280;47344;52.374;4.816;2023-02-20T08:36:47;102126.0;;;9.06;100.0
37420;BME280;47344;52.374;4.816;2023-02-20T08:38:26;102120.0;;;9.07;100.0
37420;BME280;47344;52.374;4.816;2023-02-20T08:41:45;102134.0;;;9.03;100.0
37420;BME280;47344;52.374;4.816;2023-02-20T08:43:22;102128.0;;;9.07;100.0
37420;BME280;47344;52.374;4.816;2023-02-20T08:44:59;102135.0;;;9.08;100.0
37420;BME280;47344;52.374;4.816;2023-02-20T08:48:12;102130.0;;;9.14;100.0
37420;BME280;47344;52.374;4.816;2023-02-20T08:49:48;102133.0;;;9.15;100.0
37420;BME280;47344;52.374;4.816;2023-02-20T08:51:25;102127.0;;;9.1;100.0
37420;BME280;47344;52.374;4.816;2023-02-20T08:53:01;102136.0;;;9.13;100.0
37420;BME280;47344;52.374;4.816;2023-02-20T08:56:17;102131.0;;;9.13;100.0
37420;BME280;47344;52.374;4.816;2023-02-20T08:57:55;102121.0;;;9.18;100.0
37420;BME280;47344;52.374;4.816;2023-02-20T08:59:31;102128.0;;;9.16;100.0
37420;BME280;47344;52.374;4.816;2023-02-20T09:02:45;102122.0;;;9.14;100.0
37420;BME280;47344;52.374;4.816;2023-02-20T09:04:23;102119.0;;;9.14;100.0
37420;BME280;47344;52.374;4.816;2023-02-20T09:05:59;102132.0;;;9.14;100.0
37420;BME280;47344;52.374;4.816;2023-02-20T09:07:36;102111.0;;;9.11;100.0
37420;BME280;47344;52.374;4.816;2023-02-20T09:10:48;102127.0;;;9.07;100.0
37420;BME280;47344;52.374;4.816;2023-02-20T09:12:24;102138.0;;;9.15;100.0
37420;BME280;47344;52.374;4.816;2023-02-20T09:14:00;102130.0;;;9.1;100.0
37420;BME280;47344;52.374;4.816;2023-02-20T09:17:15;102128.0;;;9.17;100.0
37420;BME280;47344;52.374;4.816;2023-02-20T09:18:54;102132.0;;;9.11;100.0
37420;BME280;47344;52.374;4.816;2023-02-20T09:20:31;102130.0;;;9.15;100.0
37420;BME280;47344;52.374;4.816;2023-02-20T09:23:44;102130.0;;;9.26;100.0
37420;BME280;47344;52.374;4.816;2023-02-20T09:25:21;102159.0;;;9.24;100.0
37420;BME280;47344;52.374;4.816;2023-02-20T09:26:57;102132.0;;;9.27;100.0
37420;BME280;47344;52.374;4.816;2023-02-20T09:28:33;102138.0;;;9.27;100.0
37420;BME280;47344;52.374;4.816;2023-02-20T09:31:52;102128.0;;;9.23;100.0
37420;BME280;47344;52.374;4.816;2023-02-20T09:33:28;102131.0;;;9.24;100.0
37420;BME280;47344;52.374;4.816;2023-02-20T09:35:05;102130.0;;;9.32;100.0
37420;BME280;47344;52.374;4.816;2023-02-20T09:38:17;102140.0;;;9.38;100.0
37420;BME280;47344;52.374;4.816;2023-02-20T09:39:53;102144.0;;;9.44;100.0
37420;BME280;47344;52.374;4.816;2023-02-20T09:41:41;102139.0;;;9.35;100.0
37420;BME280;47344;52.374;4.816;2023-02-20T09:43:29;102145.0;;;9.33;100.0
37420;BME280;47344;52.374;4.816;2023-02-20T09:45:19;102145.0;;;9.36;100.0
37420;BME280;47344;52.374;4.816;2023-02-20T09:48:55;102146.0;;;9.38;100.0
37420;BME280;47344;52.374;4.816;2023-02-20T09:50:48;102150.0;;;9.38;100.0
37420;BME280;47344;52.374;4.816;2023-02-20T09:52:28;102142.0;;;9.31;100.0
37420;BME280;47344;52.374;4.816;2023-02-20T09:54:07;102134.0;;;9.41;100.0
37420;BME280;47344;52.374;4.816;2023-02-20T09:55:46;102139.0;;;9.28;100.0
37420;BME280;47344;52.374;4.816;2023-02-20T09:59:08;102126.0;;;9.4;100.0
37420;BME280;47344;52.374;4.816;2023-02-20T10:00:49;102117.0;;;9.35;100.0
37420;BME280;47344;52.374;4.816;2023-02-20T10:02:29;102110.0;;;9.36;100.0
37420;BME280;47344;52.374;4.816;2023-02-20T10:04:11;102120.0;;;9.4;100.0
37420;BME280;47344;52.374;4.816;2023-02-20T10:07:27;102133.0;;;9.44;100.0
37420;BME280;47344;52.374;4.816;2023-02-20T10:09:09;102127.0;;;9.47;100.0
37420;BME280;47344;52.374;4.816;2023-02-20T10:10:49;102115.0;;;9.4;100.0
37420;BME280;47344;52.374;4.816;2023-02-20T10:12:31;102099.0;;;9.56;100.0
37420;BME280;47344;52.374;4.816;2023-02-20T10:16:19;102109.0;;;9.5;100.0
37420;BME280;47344;52.374;4.816;2023-02-20T10:18:08;102117.0;;;9.49;100.0
37420;BME280;47344;52.374;4.816;2023-02-20T10:19:55;102130.0;;;9.59;100.0
37420;BME280;47344;52.374;4.816;2023-02-20T10:21:44;102112.0;;;9.57;100.0
37420;BME280;47344;52.374;4.816;2023-02-20T10:23:35;102098.0;;;9.61;100.0
37420;BME280;47344;52.374;4.816;2023-02-20T10:25:22;102127.0;;;9.59;100.0
37420;BME280;47344;52.374;4.816;2023-02-20T10:29:02;102125.0;;;9.6;100.0
37420;BME280;47344;52.374;4.816;2023-02-20T10:30:55;102113.0;;;9.51;100.0
37420;BME280;47344;52.374;4.816;2023-02-20T10:32:38;102106.0;;;9.56;100.0
37420;BME280;47344;52.374;4.816;2023-02-20T10:34:22;102135.0;;;9.55;100.0
37420;BME280;47344;52.374;4.816;2023-02-20T10:36:08;102112.0;;;9.6;100.0
37420;BME280;47344;52.374;4.816;2023-02-20T10:37:52;102121.0;;;9.65;100.0
37420;BME280;47344;52.374;4.816;2023-02-20T10:41:15;102121.0;;;9.71;100.0
37420;BME280;47344;52.374;4.816;2023-02-20T10:43:01;102096.0;;;9.75;100.0
37420;BME280;47344;52.374;4.816;2023-02-20T10:44:46;102094.0;;;9.76;100.0
37420;BME280;47344;52.374;4.816;2023-02-20T10:46:31;102101.0;;;9.75;100.0
37420;BME280;47344;52.374;4.816;2023-02-20T10:48:09;102110.0;;;9.75;100.0
37420;BME280;47344;52.374;4.816;2023-02-20T10:51:36;102126.0;;;9.78;100.0
37420;BME280;47344;52.374;4.816;2023-02-20T10:53:20;102124.0;;;9.77;100.0
37420;BME280;47344;52.374;4.816;2023-02-20T10:55:05;102139.0;;;9.85;100.0
37420;BME280;47344;52.374;4.816;2023-02-20T10:58:36;102136.0;;;9.82;100.0
37420;BME280;47344;52.374;4.816;2023-02-20T11:01:59;102146.0;;;9.81;100.0
37420;BME280;47344;52.374;4.816;2023-02-20T11:03:44;102139.0;;;9.72;100.0
37420;BME280;47344;52.374;4.816;2023-02-20T11:05:25;102138.0;;;9.78;100.0
37420;BME280;47344;52.374;4.816;2023-02-20T11:07:07;102124.0;;;9.76;100.0
37420;BME280;47344;52.374;4.816;2023-02-20T11:10:23;102130.0;;;9.81;100.0
37420;BME280;47344;52.374;4.816;2023-02-20T11:12:00;102124.0;;;9.71;100.0
37420;BME280;47344;52.374;4.816;2023-02-20T11:13:37;102128.0;;;9.71;100.0
37420;BME280;47344;52.374;4.816;2023-02-20T11:15:16;102147.0;;;9.84;100.0
37420;BME280;47344;52.374;4.816;2023-02-20T11:18:37;102132.0;;;9.73;100.0
37420;BME280;47344;52.374;4.816;2023-02-20T11:20:39;102138.0;;;9.81;100.0
37420;BME280;47344;52.374;4.816;2023-02-20T11:22:43;102131.0;;;9.67;100.0
37420;BME280;47344;52.374;4.816;2023-02-20T11:24:25;102131.0;;;9.84;100.0
37420;BME280;47344;52.374;4.816;2023-02-20T11:26:39;102130.0;;;9.86;100.0
37420;BME280;47344;52.374;4.816;2023-02-20T11:28:18;102127.0;;;9.77;100.0
37420;BME280;47344;52.374;4.816;2023-02-20T11:30:00;102138.0;;;9.75;100.0
37420;BME280;47344;52.374;4.816;2023-02-20T11:33:18;102138.0;;;9.77;100.0
37420;BME280;47344;52.374;4.816;2023-02-20T11:37:11;102142.0;;;9.74;100.0